sensor_id;sensor_type;location;lat;lon;timestamp;temperature;humidity
1880;DHT22;49285;49.002;8.390;2023-09-30T00:00:17;20.40;99.90
1880;DHT22;49285;49.002;8.390;2023-09-30T00:02:42;20.40;99.90
1880;DHT22;49285;49.002;8.390;2023-09-30T00:05:09;20.40;99.90
1880;DHT22;49285;49.002;8.390;2023-09-30T00:07:35;20.20;99.90
1880;DHT22;49285;49.002;8.390;2023-09-30T00:10:01;20.20;99.90
1880;DHT22;49285;49.002;8.390;2023-09-30T00:12:28;20.30;99.90
1880;DHT22;49285;49.002;8.390;2023-09-30T00:14:54;20.40;99.90
1880;DHT22;49285;49.002;8.390;2023-09-30T00:17:20;20.50;99.90
1880;DHT22;49285;49.002;8.390;2023-09-30T00:19:45;20.50;99.90
1880;DHT22;49285;49.002;8.390;2023-09-30T00:22:11;20.50;99.90
1880;DHT22;49285;49.002;8.390;2023-09-30T00:24:37;20.50;99.90
1880;DHT22;49285;49.002;8.390;2023-09-30T00:27:02;20.50;99.90
1880;DHT22;49285;49.002;8.390;2023-09-30T00:29:28;20.60;99.90
1880;DHT22;49285;49.002;8.390;2023-09-30T00:31:53;20.60;99.90
1880;DHT22;49285;49.002;8.390;2023-09-30T00:34:19;20.50;99.90
1880;DHT22;49285;49.002;8.390;2023-09-30T00:36:45;20.50;99.90
1880;DHT22;49285;49.002;8.390;2023-09-30T00:39:10;20.50;99.90
1880;DHT22;49285;49.002;8.390;2023-09-30T00:41:38;20.50;99.90
1880;DHT22;49285;49.002;8.390;2023-09-30T00:44:04;20.50;99.90
1880;DHT22;49285;49.002;8.390;2023-09-30T00:46:32;20.50;99.90
1880;DHT22;49285;49.002;8.390;2023-09-30T00:48:59;20.60;99.90
1880;DHT22;49285;49.002;8.390;2023-09-30T00:51:28;20.50;99.90
1880;DHT22;49285;49.002;8.390;2023-09-30T00:53:55;20.60;99.90
1880;DHT22;49285;49.002;8.390;2023-09-30T00:56:24;20.60;99.90
1880;DHT22;49285;49.002;8.390;2023-09-30T00:58:51;20.50;99.90
1880;DHT22;49285;49.002;8.390;2023-09-30T01:01:18;20.50;99.90
1880;DHT22;49285;49.002;8.390;2023-09-30T01:03:46;20.50;99.90
1880;DHT22;49285;49.002;8.390;2023-09-30T01:06:12;20.40;99.90
1880;DHT22;49285;49.002;8.390;2023-09-30T01:08:38;20.40;99.90
1880;DHT22;49285;49.002;8.390;2023-09-30T01:11:04;20.40;99.90
1880;DHT22;49285;49.002;8.390;2023-09-30T01:13:36;20.40;99.90
1880;DHT22;49285;49.002;8.390;2023-09-30T01:16:07;20.40;99.90
1880;DHT22;49285;49.002;8.390;2023-09-30T01:18:35;20.30;99.90
1880;DHT22;49285;49.002;8.390;2023-09-30T01:21:04;20.30;99.90
1880;DHT22;49285;49.002;8.390;2023-09-30T01:23:31;20.30;99.90
1880;DHT22;49285;49.002;8.390;2023-09-30T01:25:56;20.30;99.90
1880;DHT22;49285;49.002;8.390;2023-09-30T01:28:22;20.30;99.90
1880;DHT22;49285;49.002;8.390;2023-09-30T01:30:48;20.30;99.90
1880;DHT22;49285;49.002;8.390;2023-09-30T01:33:14;20.30;99.90
1880;DHT22;49285;49.002;8.390;2023-09-30T01:35:42;20.30;99.90
1880;DHT22;49285;49.002;8.390;2023-09-30T01:38:07;20.30;99.90
1880;DHT22;49285;49.002;8.390;2023-09-30T01:40:35;20.30;99.90
1880;DHT22;49285;49.002;8.390;2023-09-30T01:43:03;20.30;99.90
1880;DHT22;49285;49.002;8.390;2023-09-30T01:45:28;20.30;99.90
1880;DHT22;49285;49.002;8.390;2023-09-30T01:47:54;20.30;99.90
1880;DHT22;49285;49.002;8.390;2023-09-30T01:50:19;20.30;99.90
1880;DHT22;49285;49.002;8.390;2023-09-30T01:52:45;20.30;99.90
1880;DHT22;49285;49.002;8.390;2023-09-30T01:55:11;20.20;99.90
1880;DHT22;49285;49.002;8.390;2023-09-30T01:57:40;20.30;99.90
1880;DHT22;49285;49.002;8.390;2023-09-30T02:00:06;20.30;99.90
1880;DHT22;49285;49.002;8.390;2023-09-30T02:02:34;20.30;99.90
1880;DHT22;49285;49.002;8.390;2023-09-30T02:05:02;20.20;99.90
1880;DHT22;49285;49.002;8.390;2023-09-30T02:07:28;20.20;99.90
1880;DHT22;49285;49.002;8.390;2023-09-30T02:09:54;20.20;99.90
1880;DHT22;49285;49.002;8.390;2023-09-30T02:12:20;20.10;99.90
1880;DHT22;49285;49.002;8.390;2023-09-30T02:14:45;20.20;99.90
1880;DHT22;49285;49.002;8.390;2023-09-30T02:17:12;20.10;99.90
1880;DHT22;49285;49.002;8.390;2023-09-30T02:19:38;20.10;99.90
1880;DHT22;49285;49.002;8.390;2023-09-30T02:22:08;20.10;99.90
1880;DHT22;49285;49.002;8.390;2023-09-30T02:24:34;20.10;99.90
1880;DHT22;49285;49.002;8.390;2023-09-30T02:26:59;20.20;99.90
1880;DHT22;49285;49.002;8.390;2023-09-30T02:29:25;20.20;99.90
1880;DHT22;49285;49.002;8.390;2023-09-30T02:31:51;20.20;99.90
1880;DHT22;49285;49.002;8.390;2023-09-30T02:34:16;20.20;99.90
1880;DHT22;49285;49.002;8.390;2023-09-30T02:36:43;20.20;99.90
1880;DHT22;49285;49.002;8.390;2023-09-30T02:39:09;20.20;99.90
1880;DHT22;49285;49.002;8.390;2023-09-30T02:41:35;20.20;99.90
1880;DHT22;49285;49.002;8.390;2023-09-30T02:44:01;20.10;99.90
1880;DHT22;49285;49.002;8.390;2023-09-30T02:46:27;20.10;99.90
1880;DHT22;49285;49.002;8.390;2023-09-30T02:48:55;20.10;99.90
1880;DHT22;49285;49.002;8.390;2023-09-30T02:51:21;20.10;99.90
1880;DHT22;49285;49.002;8.390;2023-09-30T02:53:46;20.10;99.90
1880;DHT22;49285;49.002;8.390;2023-09-30T02:56:14;20.10;99.90
1880;DHT22;49285;49.002;8.390;2023-09-30T02:58:39;20.10;99.90
1880;DHT22;49285;49.002;8.390;2023-09-30T03:01:06;20.00;99.90
1880;DHT22;49285;49.002;8.390;2023-09-30T03:03:32;20.10;99.90
1880;DHT22;49285;49.002;8.390;2023-09-30T03:05:59;20.10;99.90
1880;DHT22;49285;49.002;8.390;2023-09-30T03:08:26;20.10;99.90
1880;DHT22;49285;49.002;8.390;2023-09-30T03:10:51;20.10;99.90
1880;DHT22;49285;49.002;8.390;2023-09-30T03:13:18;20.10;99.90
1880;DHT22;49285;49.002;8.390;2023-09-30T03:15:44;20.10;99.90
1880;DHT22;49285;49.002;8.390;2023-09-30T03:18:10;20.10;99.90
1880;DHT22;49285;49.002;8.390;2023-09-30T03:20:37;20.10;99.90
1880;DHT22;49285;49.002;8.390;2023-09-30T03:23:06;20.10;99.90
1880;DHT22;49285;49.002;8.390;2023-09-30T03:25:31;20.10;99.90
1880;DHT22;49285;49.002;8.390;2023-09-30T03:27:57;20.10;99.90
1880;DHT22;49285;49.002;8.390;2023-09-30T03:30:23;20.10;99.90
1880;DHT22;49285;49.002;8.390;2023-09-30T03:32:50;20.10;99.90
1880;DHT22;49285;49.002;8.390;2023-09-30T03:35:15;20.10;99.90
1880;DHT22;49285;49.002;8.390;2023-09-30T03:37:47;20.00;99.90
1880;DHT22;49285;49.002;8.390;2023-09-30T03:40:13;20.00;99.90
1880;DHT22;49285;49.002;8.390;2023-09-30T03:42:40;20.00;99.90
1880;DHT22;49285;49.002;8.390;2023-09-30T03:45:08;20.00;99.90
1880;DHT22;49285;49.002;8.390;2023-09-30T03:47:40;20.00;99.90
1880;DHT22;49285;49.002;8.390;2023-09-30T03:50:06;19.90;99.90
1880;DHT22;49285;49.002;8.390;2023-09-30T03:52:39;19.90;99.90
1880;DHT22;49285;49.002;8.390;2023-09-30T03:55:05;19.90;99.90
1880;DHT22;49285;49.002;8.390;2023-09-30T03:57:31;19.90;99.90
1880;DHT22;49285;49.002;8.390;2023-09-30T03:59:59;19.90;99.90
1880;DHT22;49285;49.002;8.390;2023-09-30T04:02:25;19.80;99.90
1880;DHT22;49285;49.002;8.390;2023-09-30T04:04:51;19.80;99.90
1880;DHT22;49285;49.002;8.390;2023-09-30T04:07:19;19.80;99.90
1880;DHT22;49285;49.002;8.390;2023-09-30T04:09:45;19.80;99.90
1880;DHT22;49285;49.002;8.390;2023-09-30T04:12:11;19.80;99.90
1880;DHT22;49285;49.002;8.390;2023-09-30T04:14:37;19.80;99.90
1880;DHT22;49285;49.002;8.390;2023-09-30T04:17:03;19.80;99.90
1880;DHT22;49285;49.002;8.390;2023-09-30T04:19:29;19.80;99.90
1880;DHT22;49285;49.002;8.390;2023-09-30T04:21:56;19.80;99.90
1880;DHT22;49285;49.002;8.390;2023-09-30T04:24:21;19.80;99.90
1880;DHT22;49285;49.002;8.390;2023-09-30T04:26:47;19.80;99.90
1880;DHT22;49285;49.002;8.390;2023-09-30T04:29:16;19.70;99.90
1880;DHT22;49285;49.002;8.390;2023-09-30T04:31:41;19.70;99.90
1880;DHT22;49285;49.002;8.390;2023-09-30T04:34:07;19.70;99.90
1880;DHT22;49285;49.002;8.390;2023-09-30T04:36:33;19.70;99.90
1880;DHT22;49285;49.002;8.390;2023-09-30T04:39:01;19.70;99.90
1880;DHT22;49285;49.002;8.390;2023-09-30T04:41:28;19.70;99.90
1880;DHT22;49285;49.002;8.390;2023-09-30T04:43:54;19.70;99.90
1880;DHT22;49285;49.002;8.390;2023-09-30T04:46:19;19.70;99.90
1880;DHT22;49285;49.002;8.390;2023-09-30T04:48:49;19.60;99.90
1880;DHT22;49285;49.002;8.390;2023-09-30T04:51:18;19.60;99.90
1880;DHT22;49285;49.002;8.390;2023-09-30T04:53:44;19.60;99.90
1880;DHT22;49285;49.002;8.390;2023-09-30T04:56:13;19.60;99.90
1880;DHT22;49285;49.002;8.390;2023-09-30T04:58:39;19.50;99.90
1880;DHT22;49285;49.002;8.390;2023-09-30T05:01:04;19.50;99.90
1880;DHT22;49285;49.002;8.390;2023-09-30T05:03:31;19.50;99.90
1880;DHT22;49285;49.002;8.390;2023-09-30T05:05:57;19.40;99.90
1880;DHT22;49285;49.002;8.390;2023-09-30T05:08:24;19.40;99.90
1880;DHT22;49285;49.002;8.390;2023-09-30T05:10:50;19.40;99.90
1880;DHT22;49285;49.002;8.390;2023-09-30T05:13:15;19.30;99.90
1880;DHT22;49285;49.002;8.390;2023-09-30T05:15:41;19.30;99.90
1880;DHT22;49285;49.002;8.390;2023-09-30T05:18:07;19.30;99.90
1880;DHT22;49285;49.002;8.390;2023-09-30T05:20:35;19.30;99.90
1880;DHT22;49285;49.002;8.390;2023-09-30T05:23:02;19.20;99.90
1880;DHT22;49285;49.002;8.390;2023-09-30T05:25:28;19.10;99.90
1880;DHT22;49285;49.002;8.390;2023-09-30T05:27:54;19.10;99.90
1880;DHT22;49285;49.002;8.390;2023-09-30T05:30:20;19.10;99.90
1880;DHT22;49285;49.002;8.390;2023-09-30T05:32:46;19.00;99.90
1880;DHT22;49285;49.002;8.390;2023-09-30T05:35:12;19.00;99.90
1880;DHT22;49285;49.002;8.390;2023-09-30T05:37:41;19.00;99.90
1880;DHT22;49285;49.002;8.390;2023-09-30T05:40:08;19.00;99.90
1880;DHT22;49285;49.002;8.390;2023-09-30T05:42:56;18.90;99.90
1880;DHT22;49285;49.002;8.390;2023-09-30T05:45:31;19.00;99.90
1880;DHT22;49285;49.002;8.390;2023-09-30T05:47:57;18.90;99.90
1880;DHT22;49285;49.002;8.390;2023-09-30T05:50:24;18.90;99.90
1880;DHT22;49285;49.002;8.390;2023-09-30T05:52:52;18.90;99.90
1880;DHT22;49285;49.002;8.390;2023-09-30T05:55:18;18.90;99.90
1880;DHT22;49285;49.002;8.390;2023-09-30T05:57:50;18.90;99.90
1880;DHT22;49285;49.002;8.390;2023-09-30T06:00:17;18.90;99.90
1880;DHT22;49285;49.002;8.390;2023-09-30T06:02:48;18.90;99.90
1880;DHT22;49285;49.002;8.390;2023-09-30T06:05:14;18.90;99.90
1880;DHT22;49285;49.002;8.390;2023-09-30T06:07:45;18.90;99.90
1880;DHT22;49285;49.002;8.390;2023-09-30T06:10:11;18.90;99.90
1880;DHT22;49285;49.002;8.390;2023-09-30T06:12:36;18.90;99.90
1880;DHT22;49285;49.002;8.390;2023-09-30T06:15:02;18.90;99.90
1880;DHT22;49285;49.002;8.390;2023-09-30T06:17:28;18.90;99.90
1880;DHT22;49285;49.002;8.390;2023-09-30T06:19:54;18.90;99.90
1880;DHT22;49285;49.002;8.390;2023-09-30T06:22:20;18.90;99.90
1880;DHT22;49285;49.002;8.390;2023-09-30T06:24:47;19.00;99.90
1880;DHT22;49285;49.002;8.390;2023-09-30T06:27:13;19.00;99.90
1880;DHT22;49285;49.002;8.390;2023-09-30T06:29:39;19.00;99.90
1880;DHT22;49285;49.002;8.390;2023-09-30T06:32:06;19.00;99.90
1880;DHT22;49285;49.002;8.390;2023-09-30T06:34:32;19.10;99.90
1880;DHT22;49285;49.002;8.390;2023-09-30T06:36:59;19.10;99.90
1880;DHT22;49285;49.002;8.390;2023-09-30T06:39:25;19.20;99.90
1880;DHT22;49285;49.002;8.390;2023-09-30T06:41:51;19.20;99.90
1880;DHT22;49285;49.002;8.390;2023-09-30T06:44:17;19.20;99.90
1880;DHT22;49285;49.002;8.390;2023-09-30T06:46:43;19.20;99.90
1880;DHT22;49285;49.002;8.390;2023-09-30T06:49:09;19.20;99.90
1880;DHT22;49285;49.002;8.390;2023-09-30T06:51:35;19.20;99.90
1880;DHT22;49285;49.002;8.390;2023-09-30T06:54:04;19.20;99.90
1880;DHT22;49285;49.002;8.390;2023-09-30T06:56:31;19.20;99.90
1880;DHT22;49285;49.002;8.390;2023-09-30T06:58:57;19.20;99.90
1880;DHT22;49285;49.002;8.390;2023-09-30T07:01:23;19.20;99.90
1880;DHT22;49285;49.002;8.390;2023-09-30T07:03:48;19.20;99.90
1880;DHT22;49285;49.002;8.390;2023-09-30T07:06:22;19.10;99.90
1880;DHT22;49285;49.002;8.390;2023-09-30T07:08:48;19.10;99.90
1880;DHT22;49285;49.002;8.390;2023-09-30T07:11:14;19.20;99.90
1880;DHT22;49285;49.002;8.390;2023-09-30T07:13:39;19.20;99.90
1880;DHT22;49285;49.002;8.390;2023-09-30T07:16:05;19.20;99.90
1880;DHT22;49285;49.002;8.390;2023-09-30T07:18:31;19.20;99.90
1880;DHT22;49285;49.002;8.390;2023-09-30T07:20:57;19.20;99.90
1880;DHT22;49285;49.002;8.390;2023-09-30T07:23:22;19.20;99.90
1880;DHT22;49285;49.002;8.390;2023-09-30T07:25:48;19.20;99.90
1880;DHT22;49285;49.002;8.390;2023-09-30T07:28:14;19.20;99.90
1880;DHT22;49285;49.002;8.390;2023-09-30T07:30:39;19.20;99.90
1880;DHT22;49285;49.002;8.390;2023-09-30T07:33:06;19.20;99.90
1880;DHT22;49285;49.002;8.390;2023-09-30T07:35:32;19.20;99.90
1880;DHT22;49285;49.002;8.390;2023-09-30T07:37:58;19.30;99.90
1880;DHT22;49285;49.002;8.390;2023-09-30T07:40:23;19.30;99.90
1880;DHT22;49285;49.002;8.390;2023-09-30T07:42:49;19.30;99.90
1880;DHT22;49285;49.002;8.390;2023-09-30T07:45:15;19.30;99.90
1880;DHT22;49285;49.002;8.390;2023-09-30T07:47:44;19.40;99.90
1880;DHT22;49285;49.002;8.390;2023-09-30T07:50:12;19.40;99.90
1880;DHT22;49285;49.002;8.390;2023-09-30T07:52:38;19.40;99.90
1880;DHT22;49285;49.002;8.390;2023-09-30T07:55:05;19.40;99.90
1880;DHT22;49285;49.002;8.390;2023-09-30T07:57:30;19.40;99.90
1880;DHT22;49285;49.002;8.390;2023-09-30T07:59:56;19.50;99.90
1880;DHT22;49285;49.002;8.390;2023-09-30T08:02:22;19.50;99.90
1880;DHT22;49285;49.002;8.390;2023-09-30T08:04:49;19.50;99.90
1880;DHT22;49285;49.002;8.390;2023-09-30T08:07:15;19.60;99.90
1880;DHT22;49285;49.002;8.390;2023-09-30T08:09:40;19.60;99.90
1880;DHT22;49285;49.002;8.390;2023-09-30T08:12:06;19.70;99.90
1880;DHT22;49285;49.002;8.390;2023-09-30T08:14:32;19.70;99.90
1880;DHT22;49285;49.002;8.390;2023-09-30T08:16:58;19.70;99.90
1880;DHT22;49285;49.002;8.390;2023-09-30T08:19:23;19.80;99.90
1880;DHT22;49285;49.002;8.390;2023-09-30T08:21:49;19.80;99.90
1880;DHT22;49285;49.002;8.390;2023-09-30T08:24:14;19.80;99.90
1880;DHT22;49285;49.002;8.390;2023-09-30T08:26:40;19.80;99.90
1880;DHT22;49285;49.002;8.390;2023-09-30T08:29:06;19.80;99.90
1880;DHT22;49285;49.002;8.390;2023-09-30T08:31:32;19.80;99.90
1880;DHT22;49285;49.002;8.390;2023-09-30T08:33:58;19.90;99.90
1880;DHT22;49285;49.002;8.390;2023-09-30T08:36:23;19.90;99.90
1880;DHT22;49285;49.002;8.390;2023-09-30T08:38:50;20.00;99.90
1880;DHT22;49285;49.002;8.390;2023-09-30T08:41:32;20.00;99.90
1880;DHT22;49285;49.002;8.390;2023-09-30T08:44:00;20.10;99.90
1880;DHT22;49285;49.002;8.390;2023-09-30T08:46:32;20.10;99.90
1880;DHT22;49285;49.002;8.390;2023-09-30T08:48:59;20.10;99.90
1880;DHT22;49285;49.002;8.390;2023-09-30T08:51:26;20.20;99.90
1880;DHT22;49285;49.002;8.390;2023-09-30T08:53:52;20.20;99.90
1880;DHT22;49285;49.002;8.390;2023-09-30T08:56:20;20.20;99.90
1880;DHT22;49285;49.002;8.390;2023-09-30T08:58:50;20.30;99.90
1880;DHT22;49285;49.002;8.390;2023-09-30T09:01:16;20.30;99.90
1880;DHT22;49285;49.002;8.390;2023-09-30T09:03:41;20.40;99.90
1880;DHT22;49285;49.002;8.390;2023-09-30T09:06:07;20.40;99.90
1880;DHT22;49285;49.002;8.390;2023-09-30T09:08:33;20.50;99.90
1880;DHT22;49285;49.002;8.390;2023-09-30T09:10:59;20.50;99.90
1880;DHT22;49285;49.002;8.390;2023-09-30T09:13:26;20.60;99.90
1880;DHT22;49285;49.002;8.390;2023-09-30T09:16:10;20.60;99.90
1880;DHT22;49285;49.002;8.390;2023-09-30T09:18:37;20.70;99.90
1880;DHT22;49285;49.002;8.390;2023-09-30T09:21:12;20.70;99.90
1880;DHT22;49285;49.002;8.390;2023-09-30T09:23:42;20.80;99.90
1880;DHT22;49285;49.002;8.390;2023-09-30T09:26:09;20.90;99.90
1880;DHT22;49285;49.002;8.390;2023-09-30T09:28:36;20.90;99.90
1880;DHT22;49285;49.002;8.390;2023-09-30T09:31:34;21.00;99.90
1880;DHT22;49285;49.002;8.390;2023-09-30T09:34:00;21.10;99.90
1880;DHT22;49285;49.002;8.390;2023-09-30T09:36:40;21.10;99.90
1880;DHT22;49285;49.002;8.390;2023-09-30T09:39:06;21.20;99.90
1880;DHT22;49285;49.002;8.390;2023-09-30T09:41:32;21.20;99.90
1880;DHT22;49285;49.002;8.390;2023-09-30T09:43:59;21.30;99.90
1880;DHT22;49285;49.002;8.390;2023-09-30T09:46:25;21.40;99.90
1880;DHT22;49285;49.002;8.390;2023-09-30T09:48:53;21.50;99.90
1880;DHT22;49285;49.002;8.390;2023-09-30T09:51:20;21.60;99.90
1880;DHT22;49285;49.002;8.390;2023-09-30T09:53:46;21.60;99.90
1880;DHT22;49285;49.002;8.390;2023-09-30T09:56:15;21.70;99.90
1880;DHT22;49285;49.002;8.390;2023-09-30T09:58:43;21.80;99.90
1880;DHT22;49285;49.002;8.390;2023-09-30T10:01:10;22.00;99.90
1880;DHT22;49285;49.002;8.390;2023-09-30T10:03:37;22.20;99.90
1880;DHT22;49285;49.002;8.390;2023-09-30T10:06:03;22.30;99.90
1880;DHT22;49285;49.002;8.390;2023-09-30T10:08:37;22.40;99.90
1880;DHT22;49285;49.002;8.390;2023-09-30T10:11:03;22.70;99.90
1880;DHT22;49285;49.002;8.390;2023-09-30T10:13:57;22.80;99.90
1880;DHT22;49285;49.002;8.390;2023-09-30T10:19:14;22.90;99.90
1880;DHT22;49285;49.002;8.390;2023-09-30T10:22:25;22.80;99.90
1880;DHT22;49285;49.002;8.390;2023-09-30T10:35:21;22.80;99.90
1880;DHT22;49285;49.002;8.390;2023-09-30T10:37:47;22.80;99.90
1880;DHT22;49285;49.002;8.390;2023-09-30T10:40:29;22.80;99.90
1880;DHT22;49285;49.002;8.390;2023-09-30T10:42:56;22.80;99.90
1880;DHT22;49285;49.002;8.390;2023-09-30T10:50:56;22.80;99.90
1880;DHT22;49285;49.002;8.390;2023-09-30T10:53:25;22.80;99.90
1880;DHT22;49285;49.002;8.390;2023-09-30T10:55:57;22.90;99.90
1880;DHT22;49285;49.002;8.390;2023-09-30T11:01:08;23.00;99.90
1880;DHT22;49285;49.002;8.390;2023-09-30T11:03:34;23.00;99.90
1880;DHT22;49285;49.002;8.390;2023-09-30T11:05:59;23.10;99.90
1880;DHT22;49285;49.002;8.390;2023-09-30T11:08:28;23.20;99.90
1880;DHT22;49285;49.002;8.390;2023-09-30T11:10:55;23.40;99.90
1880;DHT22;49285;49.002;8.390;2023-09-30T11:13:22;23.60;99.90
1880;DHT22;49285;49.002;8.390;2023-09-30T11:15:48;23.70;99.90
1880;DHT22;49285;49.002;8.390;2023-09-30T11:18:24;23.70;99.90
1880;DHT22;49285;49.002;8.390;2023-09-30T11:20:50;23.90;99.90
1880;DHT22;49285;49.002;8.390;2023-09-30T11:23:28;24.00;99.90
1880;DHT22;49285;49.002;8.390;2023-09-30T11:25:54;24.20;99.90
1880;DHT22;49285;49.002;8.390;2023-09-30T11:28:20;24.40;99.90
1880;DHT22;49285;49.002;8.390;2023-09-30T11:30:57;24.60;99.90
1880;DHT22;49285;49.002;8.390;2023-09-30T11:33:23;24.80;99.90
1880;DHT22;49285;49.002;8.390;2023-09-30T11:36:16;24.90;99.90
1880;DHT22;49285;49.002;8.390;2023-09-30T11:38:45;24.80;99.90
1880;DHT22;49285;49.002;8.390;2023-09-30T11:41:12;24.70;99.90
1880;DHT22;49285;49.002;8.390;2023-09-30T11:43:37;24.70;99.90
1880;DHT22;49285;49.002;8.390;2023-09-30T11:46:09;24.60;99.90
1880;DHT22;49285;49.002;8.390;2023-09-30T11:48:38;24.60;99.90
1880;DHT22;49285;49.002;8.390;2023-09-30T11:51:05;24.90;99.90
1880;DHT22;49285;49.002;8.390;2023-09-30T11:53:31;25.60;99.90
1880;DHT22;49285;49.002;8.390;2023-09-30T11:55:59;26.60;99.90
1880;DHT22;49285;49.002;8.390;2023-09-30T11:58:26;28.20;99.90
1880;DHT22;49285;49.002;8.390;2023-09-30T12:00:55;29.60;99.90
1880;DHT22;49285;49.002;8.390;2023-09-30T12:03:23;31.20;99.40
1880;DHT22;49285;49.002;8.390;2023-09-30T12:05:49;32.70;93.90
1880;DHT22;49285;49.002;8.390;2023-09-30T12:08:15;33.90;82.40
1880;DHT22;49285;49.002;8.390;2023-09-30T12:10:41;34.40;72.20
1880;DHT22;49285;49.002;8.390;2023-09-30T12:13:06;35.20;68.10
1880;DHT22;49285;49.002;8.390;2023-09-30T12:15:32;35.20;64.50
1880;DHT22;49285;49.002;8.390;2023-09-30T12:17:58;35.70;62.00
1880;DHT22;49285;49.002;8.390;2023-09-30T12:20:23;35.40;58.80
1880;DHT22;49285;49.002;8.390;2023-09-30T12:22:50;34.50;58.70
1880;DHT22;49285;49.002;8.390;2023-09-30T12:25:19;33.60;58.60
1880;DHT22;49285;49.002;8.390;2023-09-30T12:27:47;34.00;60.00
1880;DHT22;49285;49.002;8.390;2023-09-30T12:30:13;35.30;58.70
1880;DHT22;49285;49.002;8.390;2023-09-30T12:32:39;36.70;56.70
1880;DHT22;49285;49.002;8.390;2023-09-30T12:35:05;37.10;51.90
1880;DHT22;49285;49.002;8.390;2023-09-30T12:37:31;37.70;51.30
1880;DHT22;49285;49.002;8.390;2023-09-30T12:39:57;38.20;49.50
1880;DHT22;49285;49.002;8.390;2023-09-30T12:42:23;39.10;47.70
1880;DHT22;49285;49.002;8.390;2023-09-30T12:44:49;40.00;45.90
1880;DHT22;49285;49.002;8.390;2023-09-30T12:47:15;40.20;42.90
1880;DHT22;49285;49.002;8.390;2023-09-30T12:49:41;40.20;41.80
1880;DHT22;49285;49.002;8.390;2023-09-30T12:52:07;39.60;42.80
1880;DHT22;49285;49.002;8.390;2023-09-30T12:54:32;39.80;43.10
1880;DHT22;49285;49.002;8.390;2023-09-30T12:56:59;39.60;42.50
1880;DHT22;49285;49.002;8.390;2023-09-30T12:59:25;39.10;41.60
1880;DHT22;49285;49.002;8.390;2023-09-30T13:01:51;38.20;42.10
1880;DHT22;49285;49.002;8.390;2023-09-30T13:04:17;37.40;43.10
1880;DHT22;49285;49.002;8.390;2023-09-30T13:06:44;37.10;43.50
1880;DHT22;49285;49.002;8.390;2023-09-30T13:09:10;36.30;43.70
1880;DHT22;49285;49.002;8.390;2023-09-30T13:11:37;36.00;45.00
1880;DHT22;49285;49.002;8.390;2023-09-30T13:14:03;36.30;45.20
1880;DHT22;49285;49.002;8.390;2023-09-30T13:16:29;37.00;44.80
1880;DHT22;49285;49.002;8.390;2023-09-30T13:18:55;37.30;43.80
1880;DHT22;49285;49.002;8.390;2023-09-30T13:21:20;37.30;43.50
1880;DHT22;49285;49.002;8.390;2023-09-30T13:23:46;37.40;43.60
1880;DHT22;49285;49.002;8.390;2023-09-30T13:26:12;37.50;43.10
1880;DHT22;49285;49.002;8.390;2023-09-30T13:28:37;37.50;42.60
1880;DHT22;49285;49.002;8.390;2023-09-30T13:31:05;37.30;42.90
1880;DHT22;49285;49.002;8.390;2023-09-30T13:33:30;37.10;42.90
1880;DHT22;49285;49.002;8.390;2023-09-30T13:35:56;36.90;42.90
1880;DHT22;49285;49.002;8.390;2023-09-30T13:38:22;36.70;43.00
1880;DHT22;49285;49.002;8.390;2023-09-30T13:40:47;36.40;43.10
1880;DHT22;49285;49.002;8.390;2023-09-30T13:43:13;35.90;43.40
1880;DHT22;49285;49.002;8.390;2023-09-30T13:45:39;35.60;43.70
1880;DHT22;49285;49.002;8.390;2023-09-30T13:48:05;35.10;44.40
1880;DHT22;49285;49.002;8.390;2023-09-30T13:50:31;34.60;44.90
1880;DHT22;49285;49.002;8.390;2023-09-30T13:52:57;34.20;45.80
1880;DHT22;49285;49.002;8.390;2023-09-30T13:55:23;34.00;46.10
1880;DHT22;49285;49.002;8.390;2023-09-30T13:57:49;34.00;46.20
1880;DHT22;49285;49.002;8.390;2023-09-30T14:00:15;33.80;46.20
1880;DHT22;49285;49.002;8.390;2023-09-30T14:02:42;33.60;46.40
1880;DHT22;49285;49.002;8.390;2023-09-30T14:05:08;33.30;47.00
1880;DHT22;49285;49.002;8.390;2023-09-30T14:07:35;33.00;47.10
1880;DHT22;49285;49.002;8.390;2023-09-30T14:10:00;32.90;47.10
1880;DHT22;49285;49.002;8.390;2023-09-30T14:12:26;32.70;47.60
1880;DHT22;49285;49.002;8.390;2023-09-30T14:14:52;32.60;47.60
1880;DHT22;49285;49.002;8.390;2023-09-30T14:17:18;32.50;47.80
1880;DHT22;49285;49.002;8.390;2023-09-30T14:19:44;32.30;48.00
1880;DHT22;49285;49.002;8.390;2023-09-30T14:22:09;32.20;48.40
1880;DHT22;49285;49.002;8.390;2023-09-30T14:24:35;31.90;48.90
1880;DHT22;49285;49.002;8.390;2023-09-30T14:27:02;31.70;49.40
1880;DHT22;49285;49.002;8.390;2023-09-30T14:29:29;31.60;49.80
1880;DHT22;49285;49.002;8.390;2023-09-30T14:31:55;31.50;49.90
1880;DHT22;49285;49.002;8.390;2023-09-30T14:34:22;31.40;49.80
1880;DHT22;49285;49.002;8.390;2023-09-30T14:36:47;31.20;50.20
1880;DHT22;49285;49.002;8.390;2023-09-30T14:39:13;31.10;50.40
1880;DHT22;49285;49.002;8.390;2023-09-30T14:41:42;30.90;50.40
1880;DHT22;49285;49.002;8.390;2023-09-30T14:44:08;30.70;50.20
1880;DHT22;49285;49.002;8.390;2023-09-30T14:46:34;30.50;50.70
1880;DHT22;49285;49.002;8.390;2023-09-30T14:49:00;30.40;51.20
1880;DHT22;49285;49.002;8.390;2023-09-30T14:51:26;30.30;51.10
1880;DHT22;49285;49.002;8.390;2023-09-30T14:53:52;30.10;51.00
1880;DHT22;49285;49.002;8.390;2023-09-30T14:56:18;29.90;50.80
1880;DHT22;49285;49.002;8.390;2023-09-30T14:58:44;29.70;51.20
1880;DHT22;49285;49.002;8.390;2023-09-30T15:01:10;29.50;51.60
1880;DHT22;49285;49.002;8.390;2023-09-30T15:03:36;29.30;52.10
1880;DHT22;49285;49.002;8.390;2023-09-30T15:06:04;29.20;52.60
1880;DHT22;49285;49.002;8.390;2023-09-30T15:08:31;29.10;53.00
1880;DHT22;49285;49.002;8.390;2023-09-30T15:11:01;29.00;53.00
1880;DHT22;49285;49.002;8.390;2023-09-30T15:13:27;29.00;53.40
1880;DHT22;49285;49.002;8.390;2023-09-30T15:15:53;28.80;53.40
1880;DHT22;49285;49.002;8.390;2023-09-30T15:18:19;28.70;54.40
1880;DHT22;49285;49.002;8.390;2023-09-30T15:20:45;28.50;55.60
1880;DHT22;49285;49.002;8.390;2023-09-30T15:23:12;28.40;55.40
1880;DHT22;49285;49.002;8.390;2023-09-30T15:25:41;28.30;56.20
1880;DHT22;49285;49.002;8.390;2023-09-30T15:28:08;28.30;55.70
1880;DHT22;49285;49.002;8.390;2023-09-30T15:30:34;28.20;55.50
1880;DHT22;49285;49.002;8.390;2023-09-30T15:33:00;28.10;55.40
1880;DHT22;49285;49.002;8.390;2023-09-30T15:35:27;28.00;55.60
1880;DHT22;49285;49.002;8.390;2023-09-30T15:37:53;27.90;56.10
1880;DHT22;49285;49.002;8.390;2023-09-30T15:40:19;27.70;56.70
1880;DHT22;49285;49.002;8.390;2023-09-30T15:42:44;27.60;56.90
1880;DHT22;49285;49.002;8.390;2023-09-30T15:45:11;27.50;57.40
1880;DHT22;49285;49.002;8.390;2023-09-30T15:47:38;27.40;57.30
1880;DHT22;49285;49.002;8.390;2023-09-30T15:50:04;27.30;57.60
1880;DHT22;49285;49.002;8.390;2023-09-30T15:52:29;27.20;58.20
1880;DHT22;49285;49.002;8.390;2023-09-30T15:54:55;27.00;58.50
1880;DHT22;49285;49.002;8.390;2023-09-30T15:57:24;27.00;58.60
1880;DHT22;49285;49.002;8.390;2023-09-30T15:59:49;26.90;58.50
1880;DHT22;49285;49.002;8.390;2023-09-30T16:02:15;26.80;58.90
1880;DHT22;49285;49.002;8.390;2023-09-30T16:04:41;26.70;59.30